sensor_id;sensor_type;location;lat;lon;timestamp;P1;durP1;ratioP1;P2;durP2;ratioP2
28309;SDS011;15571;50.974;13.936;2022-08-19T00:02:41;12.50;;;11.27;;
28309;SDS011;15571;50.974;13.936;2022-08-19T00:05:45;13.02;;;11.73;;
28309;SDS011;15571;50.974;13.936;2022-08-19T00:08:49;12.30;;;11.10;;
28309;SDS011;15571;50.974;13.936;2022-08-19T00:11:56;15.27;;;13.40;;
28309;SDS011;15571;50.974;13.936;2022-08-19T00:14:59;12.40;;;11.25;;
28309;SDS011;15571;50.974;13.936;2022-08-19T00:18:03;12.07;;;10.98;;
28309;SDS011;15571;50.974;13.936;2022-08-19T00:21:06;13.75;;;11.68;;
28309;SDS011;15571;50.974;13.936;2022-08-19T00:24:14;12.27;;;11.05;;
28309;SDS011;15571;50.974;13.936;2022-08-19T00:27:21;11.75;;;10.60;;
28309;SDS011;15571;50.974;13.936;2022-08-19T00:30:24;13.18;;;11.95;;
28309;SDS011;15571;50.974;13.936;2022-08-19T00:33:28;13.25;;;11.95;;
28309;SDS011;15571;50.974;13.936;2022-08-19T00:36:32;13.20;;;11.73;;
28309;SDS011;15571;50.974;13.936;2022-08-19T00:39:37;13.05;;;11.73;;
28309;SDS011;15571;50.974;13.936;2022-08-19T00:42:43;14.70;;;12.98;;
28309;SDS011;15571;50.974;13.936;2022-08-19T00:45:47;14.27;;;12.73;;
28309;SDS011;15571;50.974;13.936;2022-08-19T00:48:50;17.40;;;13.57;;
28309;SDS011;15571;50.974;13.936;2022-08-19T00:51:55;15.90;;;13.57;;
28309;SDS011;15571;50.974;13.936;2022-08-19T00:55:07;14.15;;;12.70;;
28309;SDS011;15571;50.974;13.936;2022-08-19T00:58:13;15.23;;;13.63;;
28309;SDS011;15571;50.974;13.936;2022-08-19T01:01:19;17.38;;;14.40;;
28309;SDS011;15571;50.974;13.936;2022-08-19T01:04:22;15.38;;;13.05;;
28309;SDS011;15571;50.974;13.936;2022-08-19T01:07:26;15.65;;;14.02;;
28309;SDS011;15571;50.974;13.936;2022-08-19T01:10:31;16.15;;;14.45;;
28309;SDS011;15571;50.974;13.936;2022-08-19T01:13:37;15.00;;;13.43;;
28309;SDS011;15571;50.974;13.936;2022-08-19T01:16:41;17.55;;;15.65;;
28309;SDS011;15571;50.974;13.936;2022-08-19T01:19:45;18.02;;;14.95;;
28309;SDS011;15571;50.974;13.936;2022-08-19T01:22:52;16.98;;;15.27;;
28309;SDS011;15571;50.974;13.936;2022-08-19T01:25:56;18.50;;;15.95;;
28309;SDS011;15571;50.974;13.936;2022-08-19T01:29:00;21.90;;;16.77;;
28309;SDS011;15571;50.974;13.936;2022-08-19T01:32:03;18.90;;;16.90;;
28309;SDS011;15571;50.974;13.936;2022-08-19T01:35:07;19.15;;;17.13;;
28309;SDS011;15571;50.974;13.936;2022-08-19T01:38:22;17.23;;;15.38;;
28309;SDS011;15571;50.974;13.936;2022-08-19T01:41:26;17.30;;;15.50;;
28309;SDS011;15571;50.974;13.936;2022-08-19T01:44:30;16.60;;;14.88;;
28309;SDS011;15571;50.974;13.936;2022-08-19T01:47:33;19.75;;;16.70;;
28309;SDS011;15571;50.974;13.936;2022-08-19T01:50:37;17.80;;;15.93;;
28309;SDS011;15571;50.974;13.936;2022-08-19T01:53:42;17.35;;;15.55;;
28309;SDS011;15571;50.974;13.936;2022-08-19T01:56:45;19.70;;;16.92;;
28309;SDS011;15571;50.974;13.936;2022-08-19T01:59:48;17.50;;;15.65;;
28309;SDS011;15571;50.974;13.936;2022-08-19T02:02:51;20.13;;;17.17;;
28309;SDS011;15571;50.974;13.936;2022-08-19T02:05:56;19.55;;;15.98;;
28309;SDS011;15571;50.974;13.936;2022-08-19T02:09:03;17.58;;;15.38;;
28309;SDS011;15571;50.974;13.936;2022-08-19T02:12:08;18.88;;;14.95;;
28309;SDS011;15571;50.974;13.936;2022-08-19T02:15:12;19.50;;;16.52;;
28309;SDS011;15571;50.974;13.936;2022-08-19T02:18:15;19.92;;;16.83;;
28309;SDS011;15571;50.974;13.936;2022-08-19T02:21:19;16.30;;;14.57;;
28309;SDS011;15571;50.974;13.936;2022-08-19T02:24:25;18.98;;;16.20;;
28309;SDS011;15571;50.974;13.936;2022-08-19T02:27:29;20.35;;;16.40;;
28309;SDS011;15571;50.974;13.936;2022-08-19T02:30:32;18.83;;;16.83;;
28309;SDS011;15571;50.974;13.936;2022-08-19T02:33:35;20.52;;;18.40;;
28309;SDS011;15571;50.974;13.936;2022-08-19T02:36:38;18.45;;;16.33;;
28309;SDS011;15571;50.974;13.936;2022-08-19T02:39:43;18.45;;;16.60;;
28309;SDS011;15571;50.974;13.936;2022-08-19T02:42:45;22.02;;;18.80;;
28309;SDS011;15571;50.974;13.936;2022-08-19T02:45:48;18.05;;;16.00;;
28309;SDS011;15571;50.974;13.936;2022-08-19T02:48:53;22.38;;;17.70;;
28309;SDS011;15571;50.974;13.936;2022-08-19T02:51:57;17.58;;;15.75;;
28309;SDS011;15571;50.974;13.936;2022-08-19T02:55:02;16.70;;;15.07;;
28309;SDS011;15571;50.974;13.936;2022-08-19T02:58:06;18.50;;;16.60;;
28309;SDS011;15571;50.974;13.936;2022-08-19T03:01:09;17.50;;;15.75;;
28309;SDS011;15571;50.974;13.936;2022-08-19T03:04:14;16.63;;;14.65;;
28309;SDS011;15571;50.974;13.936;2022-08-19T03:07:18;17.05;;;15.40;;
28309;SDS011;15571;50.974;13.936;2022-08-19T03:10:22;17.27;;;15.48;;
28309;SDS011;15571;50.974;13.936;2022-08-19T03:13:25;19.40;;;16.67;;
28309;SDS011;15571;50.974;13.936;2022-08-19T03:16:30;19.52;;;17.05;;
28309;SDS011;15571;50.974;13.936;2022-08-19T03:19:34;16.52;;;14.82;;
28309;SDS011;15571;50.974;13.936;2022-08-19T03:22:39;17.52;;;15.38;;
28309;SDS011;15571;50.974;13.936;2022-08-19T03:25:44;17.38;;;15.65;;
28309;SDS011;15571;50.974;13.936;2022-08-19T03:28:49;20.80;;;16.48;;
28309;SDS011;15571;50.974;13.936;2022-08-19T03:31:52;18.58;;;16.13;;
28309;SDS011;15571;50.974;13.936;2022-08-19T03:34:55;16.13;;;14.43;;
28309;SDS011;15571;50.974;13.936;2022-08-19T03:37:58;17.40;;;15.15;;
28309;SDS011;15571;50.974;13.936;2022-08-19T03:41:06;16.80;;;15.07;;
28309;SDS011;15571;50.974;13.936;2022-08-19T03:44:13;17.20;;;15.40;;
28309;SDS011;15571;50.974;13.936;2022-08-19T03:47:16;17.60;;;15.80;;
28309;SDS011;15571;50.974;13.936;2022-08-19T03:50:19;17.33;;;15.63;;
28309;SDS011;15571;50.974;13.936;2022-08-19T03:53:21;17.73;;;15.38;;
28309;SDS011;15571;50.974;13.936;2022-08-19T03:56:26;19.48;;;16.35;;
28309;SDS011;15571;50.974;13.936;2022-08-19T03:59:30;18.70;;;16.40;;
28309;SDS011;15571;50.974;13.936;2022-08-19T04:02:35;17.73;;;15.93;;
28309;SDS011;15571;50.974;13.936;2022-08-19T04:05:39;21.20;;;17.63;;
28309;SDS011;15571;50.974;13.936;2022-08-19T04:08:44;18.55;;;16.65;;
28309;SDS011;15571;50.974;13.936;2022-08-19T04:11:49;18.77;;;16.77;;
28309;SDS011;15571;50.974;13.936;2022-08-19T04:14:54;20.15;;;17.63;;
28309;SDS011;15571;50.974;13.936;2022-08-19T04:17:59;18.23;;;16.27;;
28309;SDS011;15571;50.974;13.936;2022-08-19T04:21:03;18.27;;;16.40;;
28309;SDS011;15571;50.974;13.936;2022-08-19T04:24:07;20.02;;;17.08;;
28309;SDS011;15571;50.974;13.936;2022-08-19T04:27:13;21.33;;;17.25;;
28309;SDS011;15571;50.974;13.936;2022-08-19T04:30:17;20.05;;;17.27;;
28309;SDS011;15571;50.974;13.936;2022-08-19T04:33:20;20.35;;;18.30;;
28309;SDS011;15571;50.974;13.936;2022-08-19T04:36:25;19.55;;;17.20;;
28309;SDS011;15571;50.974;13.936;2022-08-19T04:39:30;18.95;;;17.00;;
28309;SDS011;15571;50.974;13.936;2022-08-19T04:42:51;21.95;;;19.65;;
28309;SDS011;15571;50.974;13.936;2022-08-19T04:45:53;23.83;;;19.55;;
28309;SDS011;15571;50.974;13.936;2022-08-19T04:48:59;23.00;;;18.65;;
28309;SDS011;15571;50.974;13.936;2022-08-19T04:52:03;22.08;;;19.38;;
28309;SDS011;15571;50.974;13.936;2022-08-19T04:55:05;21.55;;;19.08;;
28309;SDS011;15571;50.974;13.936;2022-08-19T04:58:10;22.30;;;19.63;;
28309;SDS011;15571;50.974;13.936;2022-08-19T05:01:13;23.40;;;18.83;;
28309;SDS011;15571;50.974;13.936;2022-08-19T05:04:19;20.92;;;17.52;;
28309;SDS011;15571;50.974;13.936;2022-08-19T05:07:22;21.65;;;19.02;;
28309;SDS011;15571;50.974;13.936;2022-08-19T05:10:25;23.77;;;19.52;;
28309;SDS011;15571;50.974;13.936;2022-08-19T05:13:29;20.70;;;17.35;;
28309;SDS011;15571;50.974;13.936;2022-08-19T05:16:31;22.55;;;20.13;;
28309;SDS011;15571;50.974;13.936;2022-08-19T05:19:37;22.25;;;19.15;;
28309;SDS011;15571;50.974;13.936;2022-08-19T05:22:57;21.88;;;18.92;;
28309;SDS011;15571;50.974;13.936;2022-08-19T05:25:59;24.17;;;19.58;;
28309;SDS011;15571;50.974;13.936;2022-08-19T05:29:04;21.77;;;19.45;;
28309;SDS011;15571;50.974;13.936;2022-08-19T05:32:07;20.65;;;18.40;;
28309;SDS011;15571;50.974;13.936;2022-08-19T05:35:11;22.90;;;20.42;;
28309;SDS011;15571;50.974;13.936;2022-08-19T05:38:13;25.05;;;19.85;;
28309;SDS011;15571;50.974;13.936;2022-08-19T05:41:16;22.45;;;20.13;;
28309;SDS011;15571;50.974;13.936;2022-08-19T05:44:20;25.88;;;21.35;;
28309;SDS011;15571;50.974;13.936;2022-08-19T05:47:26;25.50;;;20.83;;
28309;SDS011;15571;50.974;13.936;2022-08-19T05:50:28;25.17;;;21.33;;
28309;SDS011;15571;50.974;13.936;2022-08-19T05:53:31;25.10;;;21.05;;
28309;SDS011;15571;50.974;13.936;2022-08-19T05:56:34;22.23;;;19.90;;
28309;SDS011;15571;50.974;13.936;2022-08-19T05:59:42;24.20;;;21.67;;
28309;SDS011;15571;50.974;13.936;2022-08-19T06:02:52;24.08;;;21.48;;
28309;SDS011;15571;50.974;13.936;2022-08-19T06:05:57;25.92;;;22.05;;
28309;SDS011;15571;50.974;13.936;2022-08-19T06:09:04;28.90;;;23.40;;
28309;SDS011;15571;50.974;13.936;2022-08-19T06:13:09;25.30;;;21.80;;
28309;SDS011;15571;50.974;13.936;2022-08-19T06:16:14;29.92;;;22.48;;
28309;SDS011;15571;50.974;13.936;2022-08-19T06:19:22;27.40;;;22.75;;
28309;SDS011;15571;50.974;13.936;2022-08-19T06:22:30;27.75;;;23.02;;
28309;SDS011;15571;50.974;13.936;2022-08-19T06:25:33;27.08;;;23.40;;
28309;SDS011;15571;50.974;13.936;2022-08-19T06:28:35;27.67;;;22.92;;
28309;SDS011;15571;50.974;13.936;2022-08-19T06:31:49;28.60;;;23.02;;
28309;SDS011;15571;50.974;13.936;2022-08-19T06:34:53;28.67;;;22.27;;
28309;SDS011;15571;50.974;13.936;2022-08-19T06:37:56;26.58;;;21.92;;
28309;SDS011;15571;50.974;13.936;2022-08-19T06:41:00;24.65;;;21.10;;
28309;SDS011;15571;50.974;13.936;2022-08-19T06:44:04;30.65;;;22.30;;
28309;SDS011;15571;50.974;13.936;2022-08-19T06:47:09;22.33;;;19.38;;
28309;SDS011;15571;50.974;13.936;2022-08-19T06:50:16;24.63;;;20.25;;
28309;SDS011;15571;50.974;13.936;2022-08-19T06:53:22;21.83;;;19.52;;
28309;SDS011;15571;50.974;13.936;2022-08-19T06:56:26;19.05;;;17.08;;
28309;SDS011;15571;50.974;13.936;2022-08-19T06:59:35;20.70;;;17.58;;
28309;SDS011;15571;50.974;13.936;2022-08-19T07:02:39;19.60;;;17.20;;
28309;SDS011;15571;50.974;13.936;2022-08-19T07:05:42;18.27;;;16.48;;
28309;SDS011;15571;50.974;13.936;2022-08-19T07:08:46;17.92;;;16.10;;
28309;SDS011;15571;50.974;13.936;2022-08-19T07:11:51;17.70;;;15.80;;
28309;SDS011;15571;50.974;13.936;2022-08-19T07:14:55;17.55;;;15.73;;
28309;SDS011;15571;50.974;13.936;2022-08-19T07:18:00;17.90;;;15.85;;
28309;SDS011;15571;50.974;13.936;2022-08-19T07:21:03;19.13;;;15.27;;
28309;SDS011;15571;50.974;13.936;2022-08-19T07:24:06;17.23;;;15.43;;
28309;SDS011;15571;50.974;13.936;2022-08-19T07:27:10;20.02;;;16.02;;
28309;SDS011;15571;50.974;13.936;2022-08-19T07:30:12;17.08;;;15.25;;
28309;SDS011;15571;50.974;13.936;2022-08-19T07:33:17;17.35;;;15.55;;
28309;SDS011;15571;50.974;13.936;2022-08-19T07:36:21;17.70;;;15.48;;
28309;SDS011;15571;50.974;13.936;2022-08-19T07:39:26;16.67;;;14.95;;
28309;SDS011;15571;50.974;13.936;2022-08-19T07:42:36;17.50;;;15.68;;
28309;SDS011;15571;50.974;13.936;2022-08-19T07:45:39;17.63;;;15.77;;
28309;SDS011;15571;50.974;13.936;2022-08-19T07:48:44;17.02;;;15.23;;
28309;SDS011;15571;50.974;13.936;2022-08-19T07:51:48;17.08;;;15.30;;
28309;SDS011;15571;50.974;13.936;2022-08-19T07:54:51;16.67;;;14.90;;
28309;SDS011;15571;50.974;13.936;2022-08-19T07:57:54;16.85;;;15.15;;
28309;SDS011;15571;50.974;13.936;2022-08-19T08:01:00;16.30;;;14.70;;
28309;SDS011;15571;50.974;13.936;2022-08-19T08:04:04;16.98;;;15.02;;
28309;SDS011;15571;50.974;13.936;2022-08-19T08:07:23;17.42;;;15.57;;
28309;SDS011;15571;50.974;13.936;2022-08-19T08:10:43;18.20;;;15.38;;
28309;SDS011;15571;50.974;13.936;2022-08-19T08:13:46;16.10;;;14.48;;
28309;SDS011;15571;50.974;13.936;2022-08-19T08:16:50;17.08;;;15.27;;
28309;SDS011;15571;50.974;13.936;2022-08-19T08:19:58;16.95;;;15.27;;
28309;SDS011;15571;50.974;13.936;2022-08-19T08:23:00;18.50;;;16.05;;
28309;SDS011;15571;50.974;13.936;2022-08-19T08:26:20;16.55;;;14.88;;
28309;SDS011;15571;50.974;13.936;2022-08-19T08:29:26;17.88;;;15.93;;
28309;SDS011;15571;50.974;13.936;2022-08-19T08:32:30;16.92;;;14.90;;
28309;SDS011;15571;50.974;13.936;2022-08-19T08:35:37;18.95;;;15.52;;
28309;SDS011;15571;50.974;13.936;2022-08-19T08:38:42;16.23;;;14.52;;
28309;SDS011;15571;50.974;13.936;2022-08-19T08:41:49;17.05;;;15.25;;
28309;SDS011;15571;50.974;13.936;2022-08-19T08:44:56;19.52;;;16.00;;
28309;SDS011;15571;50.974;13.936;2022-08-19T08:48:10;17.15;;;14.43;;
28309;SDS011;15571;50.974;13.936;2022-08-19T08:51:23;19.20;;;15.52;;
28309;SDS011;15571;50.974;13.936;2022-08-19T08:54:36;17.63;;;15.13;;
28309;SDS011;15571;50.974;13.936;2022-08-19T08:57:44;14.95;;;13.45;;
28309;SDS011;15571;50.974;13.936;2022-08-19T09:00:55;15.90;;;14.30;;
28309;SDS011;15571;50.974;13.936;2022-08-19T09:03:58;18.35;;;13.65;;
28309;SDS011;15571;50.974;13.936;2022-08-19T09:07:06;19.13;;;15.43;;
28309;SDS011;15571;50.974;13.936;2022-08-19T09:10:25;19.88;;;15.43;;
28309;SDS011;15571;50.974;13.936;2022-08-19T09:13:35;17.23;;;14.02;;
28309;SDS011;15571;50.974;13.936;2022-08-19T09:16:49;17.85;;;15.05;;
28309;SDS011;15571;50.974;13.936;2022-08-19T09:19:53;21.08;;;14.93;;
28309;SDS011;15571;50.974;13.936;2022-08-19T09:22:59;16.35;;;13.20;;
28309;SDS011;15571;50.974;13.936;2022-08-19T09:26:04;17.45;;;13.90;;
28309;SDS011;15571;50.974;13.936;2022-08-19T09:29:09;15.57;;;13.73;;
28309;SDS011;15571;50.974;13.936;2022-08-19T09:32:12;16.25;;;14.55;;
28309;SDS011;15571;50.974;13.936;2022-08-19T09:35:18;19.23;;;14.68;;
28309;SDS011;15571;50.974;13.936;2022-08-19T09:38:24;14.65;;;12.68;;
28309;SDS011;15571;50.974;13.936;2022-08-19T09:41:30;15.07;;;13.40;;
28309;SDS011;15571;50.974;13.936;2022-08-19T09:44:32;19.98;;;15.55;;
28309;SDS011;15571;50.974;13.936;2022-08-19T09:47:35;15.35;;;13.20;;
28309;SDS011;15571;50.974;13.936;2022-08-19T09:50:42;18.38;;;14.93;;
28309;SDS011;15571;50.974;13.936;2022-08-19T09:53:47;17.38;;;14.90;;
28309;SDS011;15571;50.974;13.936;2022-08-19T09:56:51;15.63;;;13.93;;
28309;SDS011;15571;50.974;13.936;2022-08-19T09:59:55;16.38;;;14.68;;
28309;SDS011;15571;50.974;13.936;2022-08-19T10:03:00;14.98;;;13.48;;
28309;SDS011;15571;50.974;13.936;2022-08-19T10:06:07;15.32;;;13.32;;
28309;SDS011;15571;50.974;13.936;2022-08-19T10:09:11;17.75;;;13.98;;
28309;SDS011;15571;50.974;13.936;2022-08-19T10:12:14;13.85;;;12.35;;
28309;SDS011;15571;50.974;13.936;2022-08-19T10:15:17;13.15;;;11.77;;
28309;SDS011;15571;50.974;13.936;2022-08-19T10:18:22;12.40;;;10.93;;
28309;SDS011;15571;50.974;13.936;2022-08-19T10:21:27;14.32;;;12.77;;
28309;SDS011;15571;50.974;13.936;2022-08-19T10:24:32;13.85;;;12.52;;
28309;SDS011;15571;50.974;13.936;2022-08-19T10:27:35;16.08;;;13.07;;
28309;SDS011;15571;50.974;13.936;2022-08-19T10:30:40;15.48;;;13.98;;
28309;SDS011;15571;50.974;13.936;2022-08-19T10:33:43;15.55;;;13.85;;
28309;SDS011;15571;50.974;13.936;2022-08-19T10:36:46;16.27;;;14.07;;
28309;SDS011;15571;50.974;13.936;2022-08-19T10:39:50;17.10;;;15.32;;
28309;SDS011;15571;50.974;13.936;2022-08-19T10:43:05;17.85;;;14.60;;
28309;SDS011;15571;50.974;13.936;2022-08-19T10:46:08;15.30;;;13.73;;
28309;SDS011;15571;50.974;13.936;2022-08-19T10:49:12;13.82;;;12.45;;
28309;SDS011;15571;50.974;13.936;2022-08-19T10:52:15;17.35;;;14.75;;
28309;SDS011;15571;50.974;13.936;2022-08-19T10:55:36;16.20;;;14.60;;
28309;SDS011;15571;50.974;13.936;2022-08-19T10:58:56;15.68;;;13.98;;
28309;SDS011;15571;50.974;13.936;2022-08-19T11:02:03;14.57;;;13.07;;
28309;SDS011;15571;50.974;13.936;2022-08-19T11:05:07;15.05;;;13.45;;
28309;SDS011;15571;50.974;13.936;2022-08-19T11:08:11;16.00;;;13.48;;
28309;SDS011;15571;50.974;13.936;2022-08-19T11:11:18;14.75;;;13.32;;
28309;SDS011;15571;50.974;13.936;2022-08-19T11:14:21;17.40;;;13.68;;
28309;SDS011;15571;50.974;13.936;2022-08-19T11:17:26;13.95;;;12.18;;
28309;SDS011;15571;50.974;13.936;2022-08-19T11:20:32;13.95;;;12.48;;
28309;SDS011;15571;50.974;13.936;2022-08-19T11:23:34;13.23;;;11.82;;
28309;SDS011;15571;50.974;13.936;2022-08-19T11:26:39;12.40;;;11.18;;
28309;SDS011;15571;50.974;13.936;2022-08-19T11:29:42;12.48;;;10.85;;
28309;SDS011;15571;50.974;13.936;2022-08-19T11:32:45;12.18;;;10.98;;
28309;SDS011;15571;50.974;13.936;2022-08-19T11:35:48;11.32;;;10.20;;
28309;SDS011;15571;50.974;13.936;2022-08-19T11:38:54;12.77;;;10.70;;
28309;SDS011;15571;50.974;13.936;2022-08-19T11:41:59;11.02;;;9.77;;
28309;SDS011;15571;50.974;13.936;2022-08-19T11:45:02;10.02;;;9.05;;
28309;SDS011;15571;50.974;13.936;2022-08-19T11:48:05;10.73;;;9.63;;
28309;SDS011;15571;50.974;13.936;2022-08-19T11:51:09;9.32;;;8.10;;
28309;SDS011;15571;50.974;13.936;2022-08-19T11:54:14;10.35;;;9.30;;
28309;SDS011;15571;50.974;13.936;2022-08-19T11:57:19;11.20;;;8.50;;
28309;SDS011;15571;50.974;13.936;2022-08-19T12:00:24;9.57;;;8.00;;
28309;SDS011;15571;50.974;13.936;2022-08-19T12:03:27;9.38;;;8.45;;
28309;SDS011;15571;50.974;13.936;2022-08-19T12:06:32;9.82;;;8.90;;
28309;SDS011;15571;50.974;13.936;2022-08-19T12:09:39;11.63;;;8.95;;
28309;SDS011;15571;50.974;13.936;2022-08-19T12:12:46;8.73;;;7.93;;
28309;SDS011;15571;50.974;13.936;2022-08-19T12:15:49;9.63;;;8.63;;
28309;SDS011;15571;50.974;13.936;2022-08-19T12:19:00;10.13;;;9.02;;
28309;SDS011;15571;50.974;13.936;2022-08-19T12:22:05;9.43;;;8.52;;
28309;SDS011;15571;50.974;13.936;2022-08-19T12:25:09;9.80;;;8.80;;
28309;SDS011;15571;50.974;13.936;2022-08-19T12:28:16;8.95;;;8.15;;
28309;SDS011;15571;50.974;13.936;2022-08-19T12:31:19;7.53;;;6.90;;
28309;SDS011;15571;50.974;13.936;2022-08-19T12:34:24;10.98;;;9.55;;
28309;SDS011;15571;50.974;13.936;2022-08-19T12:37:30;9.60;;;8.60;;
28309;SDS011;15571;50.974;13.936;2022-08-19T12:40:39;12.40;;;11.02;;
28309;SDS011;15571;50.974;13.936;2022-08-19T12:43:49;11.95;;;10.75;;
28309;SDS011;15571;50.974;13.936;2022-08-19T12:46:53;13.82;;;12.52;;
28309;SDS011;15571;50.974;13.936;2022-08-19T12:49:56;13.90;;;12.15;;
28309;SDS011;15571;50.974;13.936;2022-08-19T12:52:59;13.75;;;12.30;;
28309;SDS011;15571;50.974;13.936;2022-08-19T12:56:04;13.10;;;11.70;;
28309;SDS011;15571;50.974;13.936;2022-08-19T12:59:09;13.80;;;12.40;;
28309;SDS011;15571;50.974;13.936;2022-08-19T13:02:11;15.07;;;13.48;;
28309;SDS011;15571;50.974;13.936;2022-08-19T13:05:15;16.52;;;14.82;;
28309;SDS011;15571;50.974;13.936;2022-08-19T13:08:20;16.58;;;14.82;;
28309;SDS011;15571;50.974;13.936;2022-08-19T13:11:26;16.20;;;14.52;;
28309;SDS011;15571;50.974;13.936;2022-08-19T13:14:34;20.17;;;16.20;;
28309;SDS011;15571;50.974;13.936;2022-08-19T13:17:40;20.33;;;16.98;;
28309;SDS011;15571;50.974;13.936;2022-08-19T13:20:43;20.67;;;17.98;;
28309;SDS011;15571;50.974;13.936;2022-08-19T13:23:48;20.58;;;18.33;;
28309;SDS011;15571;50.974;13.936;2022-08-19T13:34:01;24.67;;;20.13;;
28309;SDS011;15571;50.974;13.936;2022-08-19T13:37:06;25.77;;;20.63;;
28309;SDS011;15571;50.974;13.936;2022-08-19T13:40:11;23.75;;;20.25;;
28309;SDS011;15571;50.974;13.936;2022-08-19T13:43:16;22.85;;;18.40;;
28309;SDS011;15571;50.974;13.936;2022-08-19T13:46:20;22.13;;;18.27;;
28309;SDS011;15571;50.974;13.936;2022-08-19T13:49:24;21.83;;;19.33;;
28309;SDS011;15571;50.974;13.936;2022-08-19T13:52:27;20.30;;;17.63;;
28309;SDS011;15571;50.974;13.936;2022-08-19T13:55:30;21.50;;;17.75;;
28309;SDS011;15571;50.974;13.936;2022-08-19T13:58:34;23.52;;;19.33;;
28309;SDS011;15571;50.974;13.936;2022-08-19T14:01:37;20.75;;;18.23;;
28309;SDS011;15571;50.974;13.936;2022-08-19T14:04:41;19.00;;;17.00;;
28309;SDS011;15571;50.974;13.936;2022-08-19T14:07:50;25.13;;;19.15;;
28309;SDS011;15571;50.974;13.936;2022-08-19T14:10:55;23.08;;;19.00;;
28309;SDS011;15571;50.974;13.936;2022-08-19T14:13:58;22.13;;;19.08;;
28309;SDS011;15571;50.974;13.936;2022-08-19T14:17:01;22.50;;;19.02;;
28309;SDS011;15571;50.974;13.936;2022-08-19T14:20:09;23.63;;;19.73;;
28309;SDS011;15571;50.974;13.936;2022-08-19T14:23:13;24.80;;;20.90;;
28309;SDS011;15571;50.974;13.936;2022-08-19T14:26:16;24.67;;;20.77;;
28309;SDS011;15571;50.974;13.936;2022-08-19T14:29:22;26.25;;;21.38;;
28309;SDS011;15571;50.974;13.936;2022-08-19T14:32:25;23.48;;;20.50;;
28309;SDS011;15571;50.974;13.936;2022-08-19T14:35:29;20.63;;;18.52;;
28309;SDS011;15571;50.974;13.936;2022-08-19T14:38:35;26.92;;;22.80;;
28309;SDS011;15571;50.974;13.936;2022-08-19T14:41:39;23.00;;;20.60;;
28309;SDS011;15571;50.974;13.936;2022-08-19T14:44:42;28.13;;;21.65;;
28309;SDS011;15571;50.974;13.936;2022-08-19T14:47:48;25.80;;;22.13;;
28309;SDS011;15571;50.974;13.936;2022-08-19T14:50:52;30.92;;;24.08;;
28309;SDS011;15571;50.974;13.936;2022-08-19T14:53:56;28.90;;;23.55;;
28309;SDS011;15571;50.974;13.936;2022-08-19T14:57:01;29.27;;;25.02;;
28309;SDS011;15571;50.974;13.936;2022-08-19T15:00:04;29.92;;;24.13;;
28309;SDS011;15571;50.974;13.936;2022-08-19T15:03:15;31.35;;;25.27;;
28309;SDS011;15571;50.974;13.936;2022-08-19T15:06:23;26.77;;;21.58;;
28309;SDS011;15571;50.974;13.936;2022-08-19T15:09:26;31.67;;;25.85;;
28309;SDS011;15571;50.974;13.936;2022-08-19T15:12:35;27.10;;;21.67;;
28309;SDS011;15571;50.974;13.936;2022-08-19T15:15:40;30.40;;;24.60;;
28309;SDS011;15571;50.974;13.936;2022-08-19T15:18:43;26.05;;;21.90;;
28309;SDS011;15571;50.974;13.936;2022-08-19T15:21:49;32.97;;;27.35;;
28309;SDS011;15571;50.974;13.936;2022-08-19T15:24:54;29.45;;;22.50;;
28309;SDS011;15571;50.974;13.936;2022-08-19T15:27:56;31.42;;;23.83;;
28309;SDS011;15571;50.974;13.936;2022-08-19T15:31:03;32.17;;;25.45;;
28309;SDS011;15571;50.974;13.936;2022-08-19T15:34:16;38.25;;;28.98;;
28309;SDS011;15571;50.974;13.936;2022-08-19T15:37:26;35.20;;;26.42;;
28309;SDS011;15571;50.974;13.936;2022-08-19T15:40:30;35.88;;;26.80;;
28309;SDS011;15571;50.974;13.936;2022-08-19T15:43:33;32.90;;;26.70;;
28309;SDS011;15571;50.974;13.936;2022-08-19T15:46:47;41.17;;;29.15;;
28309;SDS011;15571;50.974;13.936;2022-08-19T15:49:50;35.33;;;26.08;;
28309;SDS011;15571;50.974;13.936;2022-08-19T15:52:56;37.55;;;27.00;;
28309;SDS011;15571;50.974;13.936;2022-08-19T15:56:00;39.03;;;28.02;;
28309;SDS011;15571;50.974;13.936;2022-08-19T15:59:03;45.13;;;32.28;;
28309;SDS011;15571;50.974;13.936;2022-08-19T16:02:28;35.90;;;26.60;;
28309;SDS011;15571;50.974;13.936;2022-08-19T16:05:48;39.28;;;27.80;;
28309;SDS011;15571;50.974;13.936;2022-08-19T16:09:09;32.10;;;26.10;;
28309;SDS011;15571;50.974;13.936;2022-08-19T16:12:12;36.95;;;27.08;;
28309;SDS011;15571;50.974;13.936;2022-08-19T16:15:16;37.83;;;29.48;;
28309;SDS011;15571;50.974;13.936;2022-08-19T16:18:28;33.28;;;27.25;;
28309;SDS011;15571;50.974;13.936;2022-08-19T16:21:30;35.70;;;26.98;;
28309;SDS011;15571;50.974;13.936;2022-08-19T16:24:37;32.55;;;25.27;;
28309;SDS011;15571;50.974;13.936;2022-08-19T16:27:42;39.40;;;28.90;;
28309;SDS011;15571;50.974;13.936;2022-08-19T16:30:48;31.80;;;25.35;;
28309;SDS011;15571;50.974;13.936;2022-08-19T16:33:51;35.25;;;26.83;;
28309;SDS011;15571;50.974;13.936;2022-08-19T16:36:54;37.55;;;31.15;;
28309;SDS011;15571;50.974;13.936;2022-08-19T16:39:58;31.50;;;25.25;;
28309;SDS011;15571;50.974;13.936;2022-08-19T16:43:03;36.83;;;29.05;;
28309;SDS011;15571;50.974;13.936;2022-08-19T16:46:09;34.20;;;26.20;;
28309;SDS011;15571;50.974;13.936;2022-08-19T16:49:12;33.92;;;26.92;;
28309;SDS011;15571;50.974;13.936;2022-08-19T16:52:17;40.38;;;29.55;;
28309;SDS011;15571;50.974;13.936;2022-08-19T16:55:22;33.95;;;26.33;;
28309;SDS011;15571;50.974;13.936;2022-08-19T16:58:28;38.78;;;29.30;;
28309;SDS011;15571;50.974;13.936;2022-08-19T17:01:36;35.35;;;25.67;;
28309;SDS011;15571;50.974;13.936;2022-08-19T17:04:41;32.08;;;25.73;;
28309;SDS011;15571;50.974;13.936;2022-08-19T17:07:46;37.22;;;30.08;;
28309;SDS011;15571;50.974;13.936;2022-08-19T17:10:50;35.97;;;26.67;;
28309;SDS011;15571;50.974;13.936;2022-08-19T17:13:57;33.83;;;26.20;;
28309;SDS011;15571;50.974;13.936;2022-08-19T17:17:02;30.70;;;24.58;;
28309;SDS011;15571;50.974;13.936;2022-08-19T17:20:06;36.05;;;27.00;;
28309;SDS011;15571;50.974;13.936;2022-08-19T17:23:09;29.52;;;23.42;;
28309;SDS011;15571;50.974;13.936;2022-08-19T17:26:14;28.67;;;23.67;;
28309;SDS011;15571;50.974;13.936;2022-08-19T17:29:19;29.92;;;24.23;;
28309;SDS011;15571;50.974;13.936;2022-08-19T17:32:21;30.65;;;24.58;;
28309;SDS011;15571;50.974;13.936;2022-08-19T17:35:25;32.47;;;26.17;;
28309;SDS011;15571;50.974;13.936;2022-08-19T17:38:28;36.25;;;24.33;;
28309;SDS011;15571;50.974;13.936;2022-08-19T17:41:36;31.08;;;24.42;;
28309;SDS011;15571;50.974;13.936;2022-08-19T17:44:39;29.33;;;23.30;;
28309;SDS011;15571;50.974;13.936;2022-08-19T17:47:41;27.88;;;22.50;;
28309;SDS011;15571;50.974;13.936;2022-08-19T17:50:44;22.20;;;18.85;;
28309;SDS011;15571;50.974;13.936;2022-08-19T17:53:48;24.95;;;21.38;;
28309;SDS011;15571;50.974;13.936;2022-08-19T17:56:56;26.17;;;20.80;;
28309;SDS011;15571;50.974;13.936;2022-08-19T17:59:59;28.48;;;22.60;;